Time;durP1;ratioP1;P1;durP2;ratioP2;P2;SDS_P1;SDS_P2;PMS_P1;PMS_P2;Temp;Humidity;BMP_temperature;BMP_pressure;BME280_temperature;BME280_humidity;BME280_pressure;Samples;Min_cycle;Max_cycle;Signal;HPM_P1;HPM_P2
2022/05/04 00:00:06;;;;;;;2.60;1.30;;;20.00;47.40;;;;;;5069931;28;44094;-59
2022/05/04 00:02:39;;;;;;;2.22;1.30;;;20.00;47.50;;;;;;5058661;28;45125;-59
2022/05/04 00:05:08;;;;;;;1.55;0.93;;;20.00;47.50;;;;;;5076343;27;43413;-59
2022/05/04 00:07:35;;;;;;;2.15;1.13;;;20.00;47.50;;;;;;5070299;28;43513;-59
2022/05/04 00:10:04;;;;;;;2.88;1.45;;;20.00;47.50;;;;;;5081081;27;43430;-59
2022/05/04 00:12:33;;;;;;;1.27;0.80;;;20.00;47.40;;;;;;5095724;27;44034;-60
2022/05/04 00:15:01;;;;;;;1.20;0.95;;;20.00;47.50;;;;;;5074265;28;43456;-59
2022/05/04 00:17:28;;;;;;;1.00;0.90;;;20.00;47.50;;;;;;5070447;28;43490;-60
2022/05/04 00:19:56;;;;;;;1.77;1.30;;;20.00;47.50;;;;;;5081316;27;43458;-60
2022/05/04 00:22:25;;;;;;;2.20;1.10;;;19.90;47.40;;;;;;5081844;28;44687;-60
2022/05/04 00:24:52;;;;;;;1.83;1.13;;;19.90;47.40;;;;;;5073593;28;43693;-60
2022/05/04 00:27:20;;;;;;;1.40;0.93;;;19.90;47.40;;;;;;5070044;28;43418;-58
2022/05/04 00:29:47;;;;;;;2.05;1.05;;;19.90;47.40;;;;;;5080826;27;43577;-60
2022/05/04 00:32:19;;;;;;;2.97;1.20;;;19.90;47.40;;;;;;5080753;28;43779;-60
2022/05/04 00:34:47;;;;;;;2.60;1.30;;;19.90;47.50;;;;;;5066001;28;43419;-60
2022/05/04 00:37:14;;;;;;;1.52;1.00;;;19.90;47.50;;;;;;5069264;28;43472;-61
2022/05/04 00:39:42;;;;;;;1.05;0.82;;;19.80;47.40;;;;;;5080809;28;43471;-59
2022/05/04 00:42:10;;;;;;;2.00;1.20;;;19.90;47.50;;;;;;5078465;28;44140;-59
2022/05/04 00:44:38;;;;;;;2.42;1.40;;;19.90;47.50;;;;;;5069790;28;43479;-61
2022/05/04 00:47:07;;;;;;;1.98;1.38;;;19.80;47.50;;;;;;5067485;28;43565;-60
2022/05/04 00:49:35;;;;;;;2.03;1.10;;;19.80;47.40;;;;;;5072421;28;43419;-60
2022/05/04 00:52:07;;;;;;;2.40;1.40;;;19.80;47.50;;;;;;5088400;27;44678;-60
2022/05/04 00:54:35;;;;;;;1.92;1.17;;;19.80;47.40;;;;;;5069531;28;43649;-62
2022/05/04 00:57:04;;;;;;;1.90;0.95;;;19.80;47.50;;;;;;5082467;28;43441;-61
2022/05/04 00:59:33;;;;;;;1.45;1.00;;;19.80;47.50;;;;;;5080288;28;43490;-60
2022/05/04 01:02:00;;;;;;;1.20;0.93;;;19.80;47.50;;;;;;5074253;28;44016;-60
2022/05/04 01:04:28;;;;;;;1.35;1.00;;;19.80;47.50;;;;;;5068269;28;43447;-59
2022/05/04 01:06:56;;;;;;;1.80;1.05;;;19.80;47.50;;;;;;5068788;28;43508;-60
2022/05/04 01:09:22;;;;;;;1.10;0.98;;;19.80;47.50;;;;;;5078675;28;43464;-60
2022/05/04 01:11:50;;;;;;;1.45;1.00;;;19.80;47.50;;;;;;5072261;28;44858;-59
2022/05/04 01:14:17;;;;;;;1.40;1.00;;;19.80;47.50;;;;;;5067706;28;43711;-60
2022/05/04 01:16:51;;;;;;;1.95;1.17;;;19.80;47.50;;;;;;5078674;28;43500;-61
2022/05/04 01:19:18;;;;;;;2.35;0.90;;;19.70;47.50;;;;;;5064084;28;43519;-60
2022/05/04 01:21:50;;;;;;;1.25;0.90;;;19.70;47.50;;;;;;5076607;28;44040;-59
2022/05/04 01:24:18;;;;;;;1.90;1.38;;;19.70;47.50;;;;;;5079849;28;43532;-61
2022/05/04 01:26:45;;;;;;;1.83;1.20;;;19.70;47.60;;;;;;5077902;28;43539;-60
2022/05/04 01:29:14;;;;;;;1.38;1.08;;;19.70;47.50;;;;;;5078002;28;43499;-59
2022/05/04 01:31:42;;;;;;;2.13;0.95;;;19.70;47.60;;;;;;5068962;28;44667;-60
2022/05/04 01:34:09;;;;;;;1.17;1.00;;;19.70;47.50;;;;;;5078430;28;43724;-58
2022/05/04 01:36:37;;;;;;;1.15;0.90;;;19.60;47.50;;;;;;5079449;27;43435;-60
2022/05/04 01:39:04;;;;;;;1.65;1.02;;;19.60;47.50;;;;;;5075923;28;43480;-59
2022/05/04 01:44:17;;;;;;;1.20;1.00;;;19.60;47.50;;;;;;5074850;28;44081;-60
2022/05/04 01:46:45;;;;;;;2.50;1.25;;;19.60;47.60;;;;;;5078437;28;43431;-60
2022/05/04 01:49:12;;;;;;;1.42;0.93;;;19.60;47.60;;;;;;5071036;28;43510;-59
2022/05/04 01:51:40;;;;;;;2.03;1.20;;;19.60;47.50;;;;;;5078432;28;44295;-59
2022/05/04 01:54:07;;;;;;;1.35;1.20;;;19.60;47.60;;;;;;5078070;28;43411;-60
2022/05/04 01:56:35;;;;;;;1.40;0.90;;;19.60;47.60;;;;;;5077133;28;43423;-59
2022/05/04 01:59:02;;;;;;;1.88;1.05;;;19.50;47.50;;;;;;5069014;28;44039;-60
2022/05/04 02:01:30;;;;;;;1.83;0.98;;;19.60;47.50;;;;;;5074301;28;44959;-60
2022/05/04 02:03:59;;;;;;;2.00;1.13;;;19.60;47.60;;;;;;5077070;28;43983;-60
2022/05/04 02:06:27;;;;;;;2.00;1.23;;;19.50;47.50;;;;;;5069674;28;44324;-59
2022/05/04 02:08:55;;;;;;;1.50;1.00;;;19.50;47.50;;;;;;5059020;28;43613;-59
2022/05/04 02:11:24;;;;;;;2.28;1.30;;;19.50;47.50;;;;;;5077163;28;44703;-60
2022/05/04 02:13:51;;;;;;;1.33;1.00;;;19.50;47.60;;;;;;5074931;28;43765;-60
2022/05/04 02:16:19;;;;;;;2.25;1.23;;;19.50;47.60;;;;;;5069379;28;43450;-59
2022/05/04 02:18:46;;;;;;;1.27;1.10;;;19.50;47.60;;;;;;5066592;28;44497;-60
2022/05/04 02:21:14;;;;;;;1.13;0.98;;;19.40;47.50;;;;;;5074279;28;44987;-59
2022/05/04 02:23:42;;;;;;;1.70;1.27;;;19.50;47.60;;;;;;5077240;28;43889;-60
2022/05/04 02:26:09;;;;;;;1.98;1.00;;;19.50;47.50;;;;;;5068198;28;43505;-60
2022/05/04 02:28:37;;;;;;;1.45;0.90;;;19.40;47.60;;;;;;5074524;28;43409;-60
2022/05/04 02:31:04;;;;;;;0.98;0.90;;;19.40;47.60;;;;;;5078446;28;44695;-59
2022/05/04 02:33:32;;;;;;;1.75;1.15;;;19.40;47.50;;;;;;5076703;28;43447;-60
2022/05/04 02:38:45;;;;;;;2.40;1.30;;;19.40;47.50;;;;;;5076386;28;43464;-59
2022/05/04 02:41:14;;;;;;;1.83;1.30;;;19.40;47.60;;;;;;5077340;28;43785;-60
2022/05/04 02:43:41;;;;;;;1.48;0.90;;;19.40;47.60;;;;;;5074639;27;43430;-59
2022/05/04 02:46:28;;;;;;;1.60;1.08;;;19.40;47.60;;;;;;5056989;28;43483;-59
2022/05/04 02:48:57;;;;;;;1.63;1.00;;;19.30;47.50;;;;;;5067783;28;43482;-60
2022/05/04 02:51:24;;;;;;;2.00;1.13;;;19.40;47.60;;;;;;5077320;27;44742;-60
2022/05/04 02:53:52;;;;;;;2.00;1.08;;;19.30;47.50;;;;;;5074486;27;43693;-60
2022/05/04 02:56:19;;;;;;;2.50;1.05;;;19.30;47.60;;;;;;5069314;28;43467;-59
2022/05/04 02:58:49;;;;;;;1.50;1.20;;;19.30;47.60;;;;;;5078278;28;43425;-60
2022/05/04 03:04:07;;;;;;;1.23;0.90;;;19.30;47.60;;;;;;5071534;27;43488;-59
2022/05/04 03:06:37;;;;;;;1.85;1.10;;;19.30;47.60;;;;;;5081838;28;43461;-60
2022/05/04 03:09:05;;;;;;;1.08;0.85;;;19.30;47.60;;;;;;5081852;28;43553;-59
2022/05/04 03:14:20;;;;;;;0.95;0.90;;;19.30;47.70;;;;;;5070389;28;43708;-60
2022/05/04 03:16:48;;;;;;;1.30;0.90;;;19.20;47.60;;;;;;5082724;28;43521;-59
2022/05/04 03:19:16;;;;;;;2.17;1.30;;;19.20;47.70;;;;;;5082004;28;43468;-60
2022/05/04 03:21:43;;;;;;;1.65;1.20;;;19.20;47.60;;;;;;5073028;27;43967;-61
2022/05/04 03:24:11;;;;;;;1.60;1.10;;;19.20;47.60;;;;;;5069406;28;44026;-59
2022/05/04 03:26:38;;;;;;;0.77;0.70;;;19.20;47.70;;;;;;5080911;28;43542;-60
2022/05/04 03:29:06;;;;;;;1.60;1.23;;;19.20;47.60;;;;;;5081107;27;43402;-60
2022/05/04 03:31:34;;;;;;;1.08;0.98;;;19.20;47.60;;;;;;5067767;28;43795;-61
2022/05/04 03:34:02;;;;;;;1.23;1.10;;;19.20;47.60;;;;;;5078472;28;44177;-61
2022/05/04 03:36:30;;;;;;;1.35;0.90;;;19.20;47.60;;;;;;5079160;28;43940;-59
2022/05/04 03:38:59;;;;;;;1.70;1.10;;;19.20;48.30;;;;;;5079480;28;43430;-60
2022/05/04 03:41:26;;;;;;;1.42;0.93;;;19.10;47.60;;;;;;5069298;28;45015;-60
2022/05/04 03:43:54;;;;;;;1.77;1.13;;;19.10;47.60;;;;;;5075203;28;43433;-60
2022/05/04 03:46:26;;;;;;;1.52;1.02;;;19.10;47.60;;;;;;5077215;28;43488;-60
2022/05/04 03:49:01;;;;;;;2.50;1.00;;;19.10;47.50;;;;;;5074862;28;43609;-60
2022/05/04 03:51:29;;;;;;;1.20;0.90;;;19.10;47.60;;;;;;5079187;28;43797;-59
2022/05/04 03:53:56;;;;;;;0.98;0.98;;;19.10;47.60;;;;;;5080277;27;43438;-60
2022/05/04 03:56:23;;;;;;;1.65;1.10;;;19.10;47.60;;;;;;5079099;27;43430;-59
2022/05/04 03:58:51;;;;;;;1.70;0.95;;;19.10;47.60;;;;;;5072462;28;43371;-60
2022/05/04 04:01:18;;;;;;;1.42;0.98;;;19.10;47.60;;;;;;5078367;28;44223;-60
2022/05/04 04:03:46;;;;;;;2.28;1.10;;;19.10;47.60;;;;;;5081105;27;44028;-61
2022/05/04 04:06:14;;;;;;;1.63;1.05;;;19.10;47.50;;;;;;5077890;27;43423;-60
2022/05/04 04:08:51;;;;;;;1.52;1.05;;;19.00;47.50;;;;;;5069793;27;43542;-60
2022/05/04 04:11:19;;;;;;;;;;;19.00;47.60;;;;;;5079169;28;43796;-59
2022/05/04 04:13:47;;;;;;;1.63;1.10;;;19.00;47.50;;;;;;5079512;28;43418;-59
2022/05/04 04:16:16;;;;;;;1.23;1.10;;;19.00;47.60;;;;;;5063981;28;43426;-59
2022/05/04 04:18:43;;;;;;;1.73;1.20;;;19.00;47.60;;;;;;5066660;28;43604;-60
2022/05/04 04:23:57;;;;;;;1.77;0.90;;;19.00;47.60;;;;;;5078374;28;43392;-59
2022/05/04 04:26:24;;;;;;;1.50;1.15;;;19.00;47.60;;;;;;5076949;27;43439;-59
2022/05/04 04:28:52;;;;;;;1.25;0.98;;;19.00;47.60;;;;;;5073607;28;44167;-60
2022/05/04 04:31:19;;;;;;;3.15;1.17;;;19.00;47.60;;;;;;5080829;28;43784;-60
2022/05/04 04:33:47;;;;;;;1.90;1.27;;;19.00;47.60;;;;;;5077887;28;43437;-59
2022/05/04 04:36:14;;;;;;;2.08;1.10;;;19.00;47.60;;;;;;5069850;28;43488;-60
2022/05/04 04:38:42;;;;;;;1.75;1.20;;;18.90;47.60;;;;;;5077451;28;43419;-59
2022/05/04 04:41:09;;;;;;;1.25;1.15;;;19.00;47.60;;;;;;5079665;28;44736;-59
2022/05/04 04:43:37;;;;;;;1.67;1.10;;;18.90;47.60;;;;;;5074486;27;43380;-59
2022/05/04 04:46:04;;;;;;;1.30;1.00;;;18.90;47.60;;;;;;5067711;28;43383;-60
2022/05/04 04:48:32;;;;;;;3.38;1.17;;;18.90;47.60;;;;;;5069775;28;43423;-59
2022/05/04 04:50:59;;;;;;;2.13;0.95;;;18.90;47.60;;;;;;5093235;27;44690;-61
2022/05/04 04:53:27;;;;;;;1.30;0.90;;;18.90;47.60;;;;;;5075854;27;43639;-61
2022/05/04 04:55:55;;;;;;;1.30;0.93;;;18.90;47.70;;;;;;5074098;28;43400;-60
2022/05/04 04:58:23;;;;;;;1.38;1.13;;;18.90;47.70;;;;;;5081324;28;43422;-59
2022/05/04 05:00:51;;;;;;;1.60;0.98;;;18.90;47.70;;;;;;5076851;28;43825;-60
2022/05/04 05:03:18;;;;;;;1.95;1.13;;;18.90;47.70;;;;;;5074186;28;43420;-61
2022/05/04 05:05:46;;;;;;;1.27;0.90;;;18.80;47.70;;;;;;5073701;28;44022;-59
2022/05/04 05:08:13;;;;;;;1.42;0.90;;;18.80;47.70;;;;;;5082543;28;43490;-61
2022/05/04 05:10:41;;;;;;;2.50;1.08;;;18.80;47.70;;;;;;5075959;28;46103;-59
2022/05/04 05:13:08;;;;;;;1.50;0.90;;;18.80;47.70;;;;;;5071663;27;43682;-59
2022/05/04 05:18:25;;;;;;;2.63;1.10;;;18.80;47.70;;;;;;5077434;28;43643;-59
2022/05/04 05:20:52;;;;;;;1.67;1.10;;;18.80;47.70;;;;;;5077958;27;43804;-61
2022/05/04 05:23:23;;;;;;;2.50;1.20;;;18.80;47.70;;;;;;5073072;28;43651;-58
2022/05/04 05:25:52;;;;;;;1.73;1.23;;;18.80;47.70;;;;;;5081444;27;43548;-61
2022/05/04 05:28:20;;;;;;;1.30;0.93;;;18.80;47.70;;;;;;5074710;28;43423;-60
2022/05/04 05:30:47;;;;;;;2.85;1.40;;;18.80;47.80;;;;;;5072609;28;44659;-60
2022/05/04 05:33:15;;;;;;;1.80;1.02;;;18.80;47.80;;;;;;5072766;28;44079;-59
2022/05/04 05:35:42;;;;;;;2.15;1.00;;;18.80;47.80;;;;;;5081964;28;43481;-59
2022/05/04 05:38:10;;;;;;;1.55;1.08;;;18.80;47.80;;;;;;5074979;28;43430;-60
2022/05/04 05:40:37;;;;;;;1.40;1.08;;;18.70;47.80;;;;;;5071516;28;44973;-61
2022/05/04 05:43:05;;;;;;;1.65;1.00;;;18.80;47.90;;;;;;5062523;28;43456;-60
2022/05/04 05:45:33;;;;;;;2.47;1.20;;;18.70;47.90;;;;;;5075990;27;43441;-61
2022/05/04 05:48:00;;;;;;;2.05;0.90;;;18.70;47.90;;;;;;5073600;28;43498;-59
2022/05/04 05:50:28;;;;;;;1.83;1.10;;;18.70;47.90;;;;;;5069009;27;44698;-60
2022/05/04 05:52:56;;;;;;;2.53;1.05;;;18.80;47.90;;;;;;5070193;28;43403;-61
2022/05/04 05:55:24;;;;;;;2.35;1.13;;;18.70;47.90;;;;;;5077543;27;43535;-59
2022/05/04 05:57:51;;;;;;;1.63;1.00;;;18.70;47.90;;;;;;5073901;28;43569;-60
2022/05/04 06:00:19;;;;;;;1.75;0.98;;;18.70;47.90;;;;;;5072198;27;44711;-60
2022/05/04 06:02:46;;;;;;;1.25;0.93;;;18.70;47.90;;;;;;5081165;27;43421;-59
2022/05/04 06:05:14;;;;;;;0.93;0.93;;;18.70;47.90;;;;;;5077958;28;43393;-60
2022/05/04 06:07:41;;;;;;;1.92;1.30;;;18.70;47.90;;;;;;5073220;28;43429;-60
2022/05/04 06:10:09;;;;;;;1.70;1.10;;;18.70;47.90;;;;;;5070047;27;43794;-60
2022/05/04 06:12:38;;;;;;;1.15;0.98;;;18.70;47.90;;;;;;5079637;27;43494;-60
2022/05/04 06:15:07;;;;;;;2.20;1.20;;;18.70;47.80;;;;;;5078257;28;43446;-59
2022/05/04 06:17:35;;;;;;;1.77;1.05;;;18.70;47.80;;;;;;5074857;28;43473;-60
2022/05/04 06:20:04;;;;;;;2.78;1.10;;;18.70;47.80;;;;;;5070031;28;44023;-60
2022/05/04 06:22:32;;;;;;;1.48;1.02;;;18.70;47.80;;;;;;5082932;28;43526;-60
2022/05/04 06:24:59;;;;;;;1.77;0.80;;;18.70;47.80;;;;;;5075358;28;43455;-60
2022/05/04 06:27:29;;;;;;;3.17;0.90;;;18.70;47.80;;;;;;5074194;28;43505;-60
2022/05/04 06:35:28;;;;;;;1.80;1.02;;;18.60;47.80;;;;;;5073184;28;43452;-60
2022/05/04 06:37:56;;;;;;;2.35;1.20;;;18.60;47.90;;;;;;5076341;28;43491;-59
2022/05/04 06:40:23;;;;;;;1.73;1.10;;;18.60;47.90;;;;;;5083949;28;44851;-60
2022/05/04 06:42:51;;;;;;;1.52;0.95;;;18.60;47.90;;;;;;5076316;28;44793;-59
2022/05/04 06:45:18;;;;;;;1.30;1.08;;;18.60;47.90;;;;;;5067927;28;43987;-59
2022/05/04 06:47:46;;;;;;;1.58;1.00;;;18.60;47.90;;;;;;5072109;28;43552;-59
2022/05/04 06:50:13;;;;;;;2.20;1.42;;;18.60;47.90;;;;;;5077622;28;45023;-60
2022/05/04 06:52:41;;;;;;;2.25;1.20;;;18.60;47.90;;;;;;5074833;28;43484;-60
2022/05/04 06:55:09;;;;;;;1.90;1.13;;;18.60;47.90;;;;;;5072386;28;43439;-59
2022/05/04 06:57:37;;;;;;;1.00;0.90;;;18.60;47.90;;;;;;5071815;28;43482;-59
2022/05/04 07:00:08;;;;;;;1.58;1.10;;;18.60;47.90;;;;;;5096706;27;45010;-59
2022/05/04 07:02:36;;;;;;;1.88;1.20;;;18.50;47.90;;;;;;5074692;28;43499;-61
2022/05/04 07:05:04;;;;;;;3.28;1.50;;;18.50;47.90;;;;;;5074607;27;43491;-60
2022/05/04 07:07:32;;;;;;;4.05;2.10;;;18.50;48.00;;;;;;5083318;28;43446;-60
2022/05/04 07:10:00;;;;;;;2.20;2.00;;;18.60;48.00;;;;;;5078888;28;43889;-59
2022/05/04 07:12:28;;;;;;;4.50;1.90;;;18.60;48.10;;;;;;5073590;28;43924;-60
2022/05/04 07:14:58;;;;;;;4.00;1.95;;;18.60;48.00;;;;;;5073103;27;43509;-60
2022/05/04 07:17:27;;;;;;;5.80;1.90;;;18.60;48.10;;;;;;5084354;28;43417;-60
2022/05/04 07:19:54;;;;;;;2.53;1.50;;;18.70;48.10;;;;;;5076636;27;44062;-59
2022/05/04 07:22:23;;;;;;;2.60;1.70;;;18.80;48.00;;;;;;5073206;28;43423;-59
2022/05/04 07:24:51;;;;;;;3.30;1.80;;;18.90;47.90;;;;;;5069762;27;44071;-59
2022/05/04 07:27:18;;;;;;;2.47;1.70;;;19.00;47.90;;;;;;5084318;28;43593;-60
2022/05/04 07:29:47;;;;;;;1.75;1.40;;;19.10;47.70;;;;;;5076522;27;44055;-61
2022/05/04 07:32:15;;;;;;;4.72;1.75;;;19.20;47.60;;;;;;5073917;28;43512;-60
2022/05/04 07:34:43;;;;;;;3.45;1.77;;;19.30;47.50;;;;;;5070007;27;43434;-60
2022/05/04 07:37:12;;;;;;;4.10;1.50;;;19.50;47.40;;;;;;5083299;28;43463;-59
2022/05/04 07:42:25;;;;;;;4.07;1.60;;;19.90;47.10;;;;;;5059502;28;43726;-60
2022/05/04 07:45:04;;;;;;;3.35;1.70;;;20.20;47.00;;;;;;5079803;28;43415;-60
2022/05/04 07:47:34;;;;;;;2.78;2.00;;;20.50;46.70;;;;;;5074915;28;43447;-59
2022/05/04 07:50:03;;;;;;;2.33;1.88;;;20.70;46.30;;;;;;5074126;28;44676;-60
2022/05/04 07:52:31;;;;;;;2.00;1.50;;;20.90;46.00;;;;;;5069912;28;43428;-60
2022/05/04 07:54:59;;;;;;;3.13;1.77;;;21.10;45.70;;;;;;5083224;28;43548;-60
2022/05/04 07:57:26;;;;;;;2.80;1.80;;;21.30;45.50;;;;;;5073467;27;43490;-60
2022/05/04 08:05:32;;;;;;;3.63;1.38;;;21.50;45.00;;;;;;5072988;28;43518;-59
2022/05/04 08:07:59;;;;;;;4.93;1.40;;;21.60;44.90;;;;;;5074609;27;43435;-58
2022/05/04 08:10:27;;;;;;;4.03;1.50;;;21.70;44.90;;;;;;5071623;28;44980;-61
2022/05/04 08:12:55;;;;;;;3.08;1.55;;;21.80;44.80;;;;;;5070025;27;43434;-61
2022/05/04 08:15:22;;;;;;;2.85;1.52;;;21.90;44.70;;;;;;5072608;28;43452;-59
2022/05/04 08:17:49;;;;;;;2.33;1.50;;;22.00;44.60;;;;;;5089176;27;43402;-61
2022/05/04 08:20:17;;;;;;;2.83;1.70;;;22.20;44.50;;;;;;5081660;27;44311;-61
2022/05/04 08:22:44;;;;;;;1.60;1.33;;;22.40;45.00;;;;;;5079488;28;43695;-61
2022/05/04 08:25:12;;;;;;;2.38;1.40;;;22.50;44.10;;;;;;5072836;28;43421;-60
2022/05/04 08:27:40;;;;;;;3.00;1.58;;;22.70;43.80;;;;;;5071475;27;43476;-61
2022/05/04 08:30:07;;;;;;;5.38;1.48;;;22.70;43.60;;;;;;5082441;28;43796;-61
2022/05/04 08:32:35;;;;;;;4.60;1.40;;;22.80;43.80;;;;;;5077474;28;43583;-61
2022/05/04 08:35:03;;;;;;;2.58;1.60;;;22.90;44.00;;;;;;5071794;28;43447;-61
2022/05/04 08:37:30;;;;;;;7.07;1.73;;;23.00;44.10;;;;;;5069458;27;43524;-60
2022/05/04 08:39:57;;;;;;;4.30;1.65;;;23.10;44.10;;;;;;5082672;28;44844;-62
2022/05/04 08:42:25;;;;;;;6.70;1.80;;;23.20;43.90;;;;;;5077078;28;43414;-61
2022/05/04 08:44:55;;;;;;;5.32;1.80;;;23.30;43.80;;;;;;5068865;28;43621;-61
2022/05/04 08:47:25;;;;;;;4.53;1.42;;;23.40;43.80;;;;;;5069066;27;43658;-61
2022/05/04 08:49:53;;;;;;;3.15;1.60;;;23.40;43.20;;;;;;5086896;27;44680;-61
2022/05/04 08:52:21;;;;;;;3.45;1.35;;;23.50;43.10;;;;;;5074659;28;43445;-61
2022/05/04 08:54:49;;;;;;;5.05;1.50;;;23.60;43.10;;;;;;5071684;28;43424;-60
2022/05/04 08:57:17;;;;;;;3.90;1.40;;;23.60;42.90;;;;;;5068275;27;43619;-60
2022/05/04 08:59:45;;;;;;;3.25;1.35;;;23.70;43.10;;;;;;5082444;28;43804;-60
2022/05/04 09:02:13;;;;;;;2.80;1.40;;;23.80;42.90;;;;;;5073337;27;43447;-60
2022/05/04 09:04:42;;;;;;;3.35;1.25;;;23.80;42.80;;;;;;5070111;28;43552;-61
2022/05/04 09:07:26;;;;;;;2.20;1.38;;;23.90;42.70;;;;;;5080394;27;43699;-60
2022/05/04 09:09:53;;;;;;;2.97;1.30;;;23.90;42.60;;;;;;5071310;28;44767;-60
2022/05/04 09:12:22;;;;;;;3.40;1.30;;;23.90;42.70;;;;;;5084024;27;43572;-61
2022/05/04 09:14:49;;;;;;;1.92;1.27;;;23.90;42.40;;;;;;5071419;28;43466;-60
2022/05/04 09:17:21;;;;;;;4.13;1.60;;;23.90;42.60;;;;;;5083052;28;43396;-62
2022/05/04 09:22:40;;;;;;;4.43;1.40;;;23.80;42.90;;;;;;5069944;28;43957;-61
2022/05/04 09:25:18;;;;;;;1.73;1.13;;;23.80;43.00;;;;;;5070449;28;43435;-60
2022/05/04 09:27:47;;;;;;;3.08;1.42;;;23.70;43.40;;;;;;5072223;27;43632;-60
2022/05/04 09:30:16;;;;;;;1.95;1.02;;;23.70;43.80;;;;;;5074295;28;43807;-60
2022/05/04 09:32:44;;;;;;;2.58;1.33;;;23.60;43.80;;;;;;5073582;28;43602;-61
2022/05/04 09:35:13;;;;;;;1.52;1.00;;;23.50;43.80;;;;;;5075761;28;43542;-60
2022/05/04 09:46:11;;;;;;;2.03;1.10;;;23.40;43.60;;;;;;5066740;28;43505;-61
2022/05/04 09:48:39;;;;;;;2.45;1.33;;;23.30;43.70;;;;;;5063601;28;43583;-59
2022/05/04 09:51:09;;;;;;;1.75;1.15;;;23.30;43.80;;;;;;5066750;28;44097;-60
2022/05/04 09:53:37;;;;;;;2.77;1.30;;;23.30;43.80;;;;;;5066797;28;43650;-60
2022/05/04 09:56:05;;;;;;;2.25;1.30;;;23.20;43.90;;;;;;5066931;28;43486;-59
2022/05/04 09:58:33;;;;;;;2.67;1.40;;;23.20;44.70;;;;;;5062566;28;43558;-60
2022/05/04 10:01:01;;;;;;;2.28;1.30;;;23.10;44.70;;;;;;5064082;28;43766;-60
2022/05/04 10:03:29;;;;;;;1.77;1.10;;;23.10;44.20;;;;;;5074527;28;44032;-60
2022/05/04 10:06:00;;;;;;;3.40;1.17;;;23.00;44.20;;;;;;5050639;28;43510;-59
2022/05/04 10:08:28;;;;;;;2.25;1.25;;;22.90;44.00;;;;;;5071946;27;43728;-60
2022/05/04 10:10:56;;;;;;;5.22;1.27;;;22.90;44.40;;;;;;5075002;28;43784;-61
2022/05/04 10:13:24;;;;;;;2.63;1.10;;;22.80;44.70;;;;;;5078228;27;43949;-61
2022/05/04 10:15:55;;;;;;;2.22;0.90;;;22.80;44.30;;;;;;5071637;27;43556;-60
2022/05/04 10:18:30;;;;;;;1.55;1.15;;;22.80;44.50;;;;;;5069700;28;43420;-61
2022/05/04 10:21:07;;;;;;;2.58;1.20;;;22.80;44.50;;;;;;5075146;28;43669;-61
2022/05/04 10:23:47;;;;;;;2.00;1.20;;;22.70;44.50;;;;;;5090091;27;43394;-60
2022/05/04 10:26:16;;;;;;;1.83;1.20;;;22.70;44.50;;;;;;5072633;28;43509;-60
2022/05/04 10:31:34;;;;;;;2.33;1.00;;;22.50;44.60;;;;;;5077256;28;43779;-61
2022/05/04 10:34:06;;;;;;;1.85;1.33;;;22.50;44.70;;;;;;5076297;28;43425;-60
2022/05/04 10:36:46;;;;;;;1.20;1.00;;;22.40;44.80;;;;;;5066613;28;43534;-61
2022/05/04 10:39:24;;;;;;;1.50;1.13;;;22.40;44.80;;;;;;5081163;28;43668;-60
2022/05/04 10:41:51;;;;;;;1.60;1.10;;;22.40;44.80;;;;;;5060838;28;44963;-60
2022/05/04 10:44:49;;;;;;;1.92;1.10;;;22.30;44.80;;;;;;5066528;28;43499;-61
2022/05/04 10:47:19;;;;;;;2.60;1.30;;;22.30;44.60;;;;;;5066535;28;43505;-60
2022/05/04 10:49:46;;;;;;;2.20;1.20;;;22.20;44.70;;;;;;5074417;27;43556;-61
2022/05/04 10:52:17;;;;;;;2.88;1.20;;;22.20;44.90;;;;;;5074614;27;44887;-61
2022/05/04 10:54:48;;;;;;;2.50;1.40;;;22.10;44.90;;;;;;5071338;28;43959;-60
2022/05/04 10:57:16;;;;;;;3.85;1.10;;;22.10;45.20;;;;;;5066847;27;43445;-60
2022/05/04 10:59:48;;;;;;;1.65;1.08;;;22.10;45.20;;;;;;5080600;28;43524;-61
2022/05/04 11:02:19;;;;;;;1.20;1.02;;;22.00;45.20;;;;;;5071789;28;44063;-60
2022/05/04 11:04:54;;;;;;;2.88;1.27;;;22.00;45.10;;;;;;5067119;28;43526;-60
2022/05/04 11:07:28;;;;;;;2.63;1.02;;;22.00;45.10;;;;;;5056573;28;43550;-60
2022/05/04 11:10:02;;;;;;;3.35;1.20;;;22.00;45.20;;;;;;5076545;28;43644;-60
2022/05/04 11:12:30;;;;;;;1.40;1.15;;;22.00;45.30;;;;;;5071999;28;45304;-61
2022/05/04 11:14:57;;;;;;;2.10;1.23;;;21.90;45.20;;;;;;5070644;27;43448;-60
2022/05/04 11:17:32;;;;;;;1.70;1.10;;;21.90;45.20;;;;;;5085137;28;43556;-60
2022/05/04 11:20:11;;;;;;;2.03;1.33;;;21.90;45.20;;;;;;5078664;28;43414;-61
2022/05/04 11:22:39;;;;;;;2.50;1.40;;;21.90;45.20;;;;;;5056511;28;45119;-60
2022/05/04 11:25:17;;;;;;;3.92;1.30;;;21.90;45.20;;;;;;5064562;28;43473;-60
2022/05/04 11:27:44;;;;;;;1.85;1.27;;;21.90;45.10;;;;;;5083991;28;43470;-60
2022/05/04 11:30:13;;;;;;;3.22;1.40;;;21.80;44.80;;;;;;5070509;28;43649;-60
2022/05/04 11:32:41;;;;;;;1.83;1.10;;;21.80;45.10;;;;;;5073194;27;44189;-60
2022/05/04 11:35:14;;;;;;;1.67;1.10;;;21.80;45.30;;;;;;5073291;28;43486;-60
2022/05/04 11:37:42;;;;;;;8.07;1.60;;;21.80;45.40;;;;;;5079583;27;43426;-60
2022/05/04 11:40:14;;;;;;;2.88;1.40;;;21.80;45.10;;;;;;5073777;28;43434;-60
2022/05/04 11:42:41;;;;;;;2.20;1.17;;;21.80;45.20;;;;;;5084753;27;44038;-60
2022/05/04 11:45:11;;;;;;;3.53;1.25;;;21.80;45.40;;;;;;5069488;28;44124;-59
2022/05/04 11:47:38;;;;;;;3.25;1.38;;;21.80;45.40;;;;;;5074937;28;43437;-60
2022/05/04 11:50:06;;;;;;;1.95;0.80;;;21.80;45.20;;;;;;5073461;28;43519;-60
2022/05/04 11:52:34;;;;;;;1.77;1.10;;;21.90;45.40;;;;;;5071690;28;44681;-60
2022/05/04 11:55:03;;;;;;;1.40;1.02;;;21.90;45.40;;;;;;5075973;28;43994;-60
2022/05/04 11:57:41;;;;;;;2.85;1.33;;;21.90;45.40;;;;;;5074285;28;43518;-61
2022/05/04 12:00:16;;;;;;;1.52;0.93;;;22.00;45.30;;;;;;5073102;28;43585;-60
2022/05/04 12:02:44;;;;;;;1.77;1.10;;;21.90;45.20;;;;;;5073502;28;44037;-60
2022/05/04 12:05:12;;;;;;;2.00;1.05;;;21.90;45.10;;;;;;5074326;27;43671;-60
2022/05/04 12:07:40;;;;;;;1.15;0.80;;;22.00;45.20;;;;;;5076063;28;43453;-60
2022/05/04 12:10:09;;;;;;;1.60;1.10;;;22.00;45.20;;;;;;5072637;28;43491;-59
2022/05/04 12:12:37;;;;;;;2.13;1.30;;;22.00;45.20;;;;;;5099917;27;44070;-60
2022/05/04 12:15:06;;;;;;;2.33;1.10;;;22.00;45.20;;;;;;5074723;28;43787;-60
2022/05/04 12:17:37;;;;;;;2.05;1.20;;;22.00;45.20;;;;;;5074353;28;43583;-60
2022/05/04 12:20:05;;;;;;;1.77;1.08;;;22.00;45.40;;;;;;5070710;28;43557;-61
2022/05/04 12:22:33;;;;;;;1.50;1.10;;;22.00;45.20;;;;;;5084048;27;43849;-60
2022/05/04 12:25:03;;;;;;;1.35;1.00;;;22.10;45.40;;;;;;5075079;28;43721;-61
2022/05/04 12:27:33;;;;;;;1.92;1.00;;;22.00;45.40;;;;;;5071590;28;43446;-59
2022/05/04 12:33:09;;;;;;;3.22;1.20;;;22.10;45.40;;;;;;5078036;28;43814;-60
2022/05/04 12:35:46;;;;;;;2.25;1.00;;;22.00;45.20;;;;;;5074582;28;43493;-60
2022/05/04 12:38:16;;;;;;;1.90;1.15;;;22.00;45.40;;;;;;5075703;28;43488;-60
2022/05/04 12:40:44;;;;;;;1.45;1.25;;;22.00;45.40;;;;;;5072385;28;43371;-60
2022/05/04 12:43:22;;;;;;;2.65;1.17;;;22.00;45.10;;;;;;5075140;28;44043;-60
2022/05/04 12:45:54;;;;;;;2.17;1.10;;;22.00;45.30;;;;;;5067075;28;43560;-60
2022/05/04 12:48:29;;;;;;;1.48;1.00;;;22.10;45.50;;;;;;5072389;28;43451;-61
2022/05/04 12:50:58;;;;;;;1.23;1.00;;;22.10;45.50;;;;;;5069706;28;43648;-60
2022/05/04 12:53:27;;;;;;;1.75;1.10;;;22.10;45.50;;;;;;5074161;28;44965;-60
2022/05/04 12:58:41;;;;;;;1.42;1.10;;;22.20;45.50;;;;;;5066753;28;43512;-61
2022/05/04 13:01:09;;;;;;;1.23;1.10;;;22.10;45.40;;;;;;5074045;27;43544;-59
2022/05/04 13:03:37;;;;;;;2.15;1.30;;;22.20;45.30;;;;;;5073972;28;43993;-60
2022/05/04 13:06:05;;;;;;;2.03;1.17;;;22.20;46.00;;;;;;5066704;28;43464;-59
2022/05/04 13:08:32;;;;;;;1.48;0.95;;;22.20;45.20;;;;;;5075958;28;43474;-60
2022/05/04 13:11:00;;;;;;;2.03;1.10;;;22.20;45.20;;;;;;5070777;28;43482;-59
2022/05/04 13:13:27;;;;;;;3.00;1.10;;;22.20;45.20;;;;;;5067847;27;43948;-60
2022/05/04 13:15:55;;;;;;;2.58;1.10;;;22.20;45.20;;;;;;5067121;28;43402;-61
2022/05/04 13:18:22;;;;;;;1.17;0.90;;;22.20;45.10;;;;;;5064442;28;43462;-61
2022/05/04 13:20:51;;;;;;;2.15;1.20;;;22.20;45.20;;;;;;5078540;27;43528;-60
2022/05/04 13:23:19;;;;;;;1.30;1.20;;;22.20;45.10;;;;;;5067540;27;44027;-58
2022/05/04 13:25:46;;;;;;;1.50;1.20;;;22.30;45.40;;;;;;5067552;28;43466;-61
2022/05/04 13:28:15;;;;;;;1.98;1.20;;;22.30;45.30;;;;;;5079329;28;43534;-60
2022/05/04 13:30:42;;;;;;;1.65;1.25;;;22.30;45.20;;;;;;5076122;27;43463;-61
2022/05/04 13:33:11;;;;;;;1.10;1.00;;;22.30;45.20;;;;;;5068643;28;44057;-60
2022/05/04 13:35:38;;;;;;;1.83;0.90;;;22.30;45.20;;;;;;5076387;28;43514;-60
2022/05/04 13:38:06;;;;;;;1.77;1.05;;;22.30;45.20;;;;;;5077773;28;43625;-60
2022/05/04 13:40:34;;;;;;;1.20;1.05;;;22.30;45.20;;;;;;5070058;27;43465;-60
2022/05/04 13:43:02;;;;;;;1.85;0.90;;;22.30;45.20;;;;;;5073471;28;43922;-60
2022/05/04 13:45:30;;;;;;;2.17;1.13;;;22.30;45.30;;;;;;5090791;27;43506;-60